Camp Springs, North Carolina
Current Conditions -  °F | °C
As of 12:35 AM on Tuesday 27 Jan 2015 (Local Time) from KSIF Reporting Station
Scattered Clouds Scattered Clouds  
Wind Chill: 31°   Ceiling: Unl
Heat Index: 35°   Visibility: 10mi
Dew Point: 24°   Wind: 5mph
Humidity: 65%   Direction: 360°N
Pressure: 29.74"   Gusts: NA
Location:  36.3355°N, 79.6561°W
Report Text: KSIF 270535Z AUTO 36004KT 10SM SCT075 02/M04 A2974 RMK AO2 T00171043
Loading
Personal Weather Stations






























Interactive Weather Map New forecast layout! Learn more

10-Day Weather Forecast

Advertisements
Track Severe Weather on mobile